PWSweather.com
Personal Weather Stations
Station Observations
EA5BZ
Nuevo Altabix, ElcheES

Nuevo AltabixElcheES

Lat: 38.276, Lon: -0.671

Elevation: 0

Station Type: Davis Vantage Pro 2

http://meteoelche.es

High Low Average
Temperature 60.3°F15.7°C 51.6°F10.9°C 55.9°F13.3°C
Dew Point 49.5°F9.7°C 45.0°F7.2°C 47.4°F8.6°C
Winds 13.4 mph 21.6 kmh 2.5 mph 4.0 kmh 6.0 mph S9.7 kmh S
Wind Gusts 26.2 mph42.2 kmh 3.1 mph5.0 kmh 10.0 mph16.1 kmh
Humidity 78% 59% 73%
Pressure 30.40 in1029.5 mb 30.32 in1026.8 mb -
Precipitation 0.00 in0.0 mm - -
Hour Temp Dew Point Humidity Winds Wind Gusts Pressure Precip Precip Rate Daily Precip Total
12:00 AM 54.7°F12.6°C 47.0°F8.3°C 75% 5.1 mph WSW8.2 kmh WSW 7.4 mph11.9 kmh 30.35 in1027.8 mb 0.00 in0.0 mm 0.00 in0.0 mm 0.00 in0.0 mm
12:05 AM 54.7°F12.6°C 46.9°F8.3°C 75% 5.3 mph WSW8.5 kmh WSW 7.6 mph12.2 kmh 30.35 in1027.8 mb 0.00 in0.0 mm 0.00 in0.0 mm 0.00 in0.0 mm
12:10 AM 54.7°F12.6°C 46.9°F8.3°C 75% 5.8 mph WSW9.3 kmh WSW 6.9 mph11.1 kmh 30.35 in1027.8 mb 0.00 in0.0 mm 0.00 in0.0 mm 0.00 in0.0 mm
12:15 AM 54.5°F12.5°C 46.8°F8.2°C 75% 5.7 mph WSW9.2 kmh WSW 6.9 mph11.1 kmh 30.34 in1027.4 mb 0.00 in0.0 mm 0.00 in0.0 mm 0.00 in0.0 mm
12:20 AM 54.5°F12.5°C 46.7°F8.2°C 75% 5.4 mph W8.7 kmh W 7.4 mph11.9 kmh 30.34 in1027.4 mb 0.00 in0.0 mm 0.00 in0.0 mm 0.00 in0.0 mm
12:25 AM 54.5°F12.5°C 46.7°F8.2°C 75% 5.4 mph W8.7 kmh W 6.5 mph10.5 kmh 30.34 in1027.4 mb 0.00 in0.0 mm 0.00 in0.0 mm 0.00 in0.0 mm
12:30 AM 54.5°F12.5°C 46.7°F8.2°C 75% 5.4 mph W8.7 kmh W 7.4 mph11.9 kmh 30.34 in1027.4 mb 0.00 in0.0 mm 0.00 in0.0 mm 0.00 in0.0 mm
12:35 AM 54.6°F12.6°C 46.8°F8.2°C 75% 5.3 mph W8.5 kmh W 6.3 mph10.1 kmh 30.34 in1027.4 mb 0.00 in0.0 mm 0.00 in0.0 mm 0.00 in0.0 mm
12:40 AM 54.7°F12.6°C 46.9°F8.3°C 75% 5.1 mph WNW8.2 kmh WNW 7.4 mph11.9 kmh 30.34 in1027.4 mb 0.00 in0.0 mm 0.00 in0.0 mm 0.00 in0.0 mm
12:45 AM 54.7°F12.6°C 46.9°F8.3°C 75% 5.1 mph WNW8.2 kmh WNW 6.9 mph11.1 kmh 30.34 in1027.4 mb 0.00 in0.0 mm 0.00 in0.0 mm 0.00 in0.0 mm
12:50 AM 54.7°F12.6°C 46.9°F8.3°C 75% 5.1 mph WNW8.2 kmh WNW 6.9 mph11.1 kmh 30.34 in1027.4 mb 0.00 in0.0 mm 0.00 in0.0 mm 0.00 in0.0 mm
12:55 AM 54.7°F12.6°C 46.9°F8.3°C 75% 4.9 mph WNW7.9 kmh WNW 6.3 mph10.1 kmh 30.34 in1027.4 mb 0.00 in0.0 mm 0.00 in0.0 mm 0.00 in0.0 mm
01:00 AM 54.7°F12.6°C 46.9°F8.3°C 75% 4.3 mph WNW6.9 kmh WNW 8.1 mph13.0 kmh 30.34 in1027.4 mb 0.00 in0.0 mm 0.00 in0.0 mm 0.00 in0.0 mm
01:05 AM 54.7°F12.6°C 46.9°F8.3°C 75% 4.4 mph WNW7.1 kmh WNW 6.9 mph11.1 kmh 30.34 in1027.4 mb 0.00 in0.0 mm 0.00 in0.0 mm 0.00 in0.0 mm
01:10 AM 54.7°F12.6°C 46.9°F8.3°C 75% 4.7 mph WNW7.6 kmh WNW 6.9 mph11.1 kmh 30.34 in1027.4 mb 0.00 in0.0 mm 0.00 in0.0 mm 0.00 in0.0 mm
01:15 AM 54.7°F12.6°C 46.9°F8.3°C 75% 4.7 mph WNW7.6 kmh WNW 6.9 mph11.1 kmh 30.34 in1027.4 mb 0.00 in0.0 mm 0.00 in0.0 mm 0.00 in0.0 mm
01:20 AM 54.7°F12.6°C 46.9°F8.3°C 75% 4.7 mph WNW7.6 kmh WNW 6.9 mph11.1 kmh 30.34 in1027.4 mb 0.00 in0.0 mm 0.00 in0.0 mm 0.00 in0.0 mm
01:25 AM 54.7°F12.6°C 46.9°F8.3°C 75% 4.4 mph WNW7.1 kmh WNW 4.7 mph7.6 kmh 30.34 in1027.4 mb 0.00 in0.0 mm 0.00 in0.0 mm 0.00 in0.0 mm
01:30 AM 54.7°F12.6°C 46.9°F8.3°C 75% 3.6 mph W5.8 kmh W 4.3 mph6.9 kmh 30.34 in1027.4 mb 0.00 in0.0 mm 0.00 in0.0 mm 0.00 in0.0 mm
01:35 AM 54.7°F12.6°C 46.9°F8.3°C 75% 3.5 mph W5.6 kmh W 4.3 mph6.9 kmh 30.34 in1027.4 mb 0.00 in0.0 mm 0.00 in0.0 mm 0.00 in0.0 mm
01:40 AM 54.7°F12.6°C 46.9°F8.3°C 75% 3.1 mph W5.0 kmh W 5.4 mph8.7 kmh 30.34 in1027.4 mb 0.00 in0.0 mm 0.00 in0.0 mm 0.00 in0.0 mm
01:45 AM 54.7°F12.6°C 46.9°F8.3°C 75% 3.4 mph W5.5 kmh W 6.3 mph10.1 kmh 30.33 in1027.1 mb 0.00 in0.0 mm 0.00 in0.0 mm 0.00 in0.0 mm
01:50 AM 54.7°F12.6°C 46.9°F8.3°C 75% 4.3 mph WSW6.9 kmh WSW 6.9 mph11.1 kmh 30.33 in1027.1 mb 0.00 in0.0 mm 0.00 in0.0 mm 0.00 in0.0 mm
01:55 AM 54.7°F12.6°C 46.9°F8.3°C 75% 4.5 mph W7.2 kmh W 6.5 mph10.5 kmh 30.33 in1027.1 mb 0.00 in0.0 mm 0.00 in0.0 mm 0.00 in0.0 mm
02:00 AM 54.6°F12.6°C 46.8°F8.2°C 75% 5.1 mph W8.2 kmh W 7.4 mph11.9 kmh 30.33 in1027.1 mb 0.00 in0.0 mm 0.00 in0.0 mm 0.00 in0.0 mm
02:05 AM 54.5°F12.5°C 46.7°F8.2°C 75% 5.3 mph WSW8.5 kmh WSW 8.5 mph13.7 kmh 30.33 in1027.1 mb 0.00 in0.0 mm 0.00 in0.0 mm 0.00 in0.0 mm
02:10 AM 54.3°F12.4°C 46.6°F8.1°C 75% 5.8 mph WSW9.3 kmh WSW 10.1 mph16.3 kmh 30.33 in1027.1 mb 0.00 in0.0 mm 0.00 in0.0 mm 0.00 in0.0 mm
02:15 AM 54.3°F12.4°C 46.6°F8.1°C 75% 6.0 mph WSW9.7 kmh WSW 8.7 mph14.0 kmh 30.33 in1027.1 mb 0.00 in0.0 mm 0.00 in0.0 mm 0.00 in0.0 mm
02:20 AM 54.3°F12.4°C 46.6°F8.1°C 75% 6.5 mph WSW10.5 kmh WSW 7.6 mph12.2 kmh 30.33 in1027.1 mb 0.00 in0.0 mm 0.00 in0.0 mm 0.00 in0.0 mm
02:25 AM 54.2°F12.3°C 46.5°F8.1°C 75% 6.1 mph WSW9.8 kmh WSW 6.5 mph10.5 kmh 30.33 in1027.1 mb 0.00 in0.0 mm 0.00 in0.0 mm 0.00 in0.0 mm
02:30 AM 54.2°F12.3°C 46.5°F8.1°C 75% 4.7 mph W7.6 kmh W 6.9 mph11.1 kmh 30.33 in1027.1 mb 0.00 in0.0 mm 0.00 in0.0 mm 0.00 in0.0 mm
02:35 AM 54.2°F12.3°C 46.4°F8.0°C 75% 4.6 mph W7.4 kmh W 5.4 mph8.7 kmh 30.33 in1027.1 mb 0.00 in0.0 mm 0.00 in0.0 mm 0.00 in0.0 mm
02:40 AM 54.1°F12.3°C 46.5°F8.1°C 75% 4.3 mph W6.9 kmh W 5.8 mph9.3 kmh 30.34 in1027.4 mb 0.00 in0.0 mm 0.00 in0.0 mm 0.00 in0.0 mm
02:45 AM 54.1°F12.3°C 46.7°F8.2°C 76% 4.4 mph W7.1 kmh W 6.5 mph10.5 kmh 30.34 in1027.4 mb 0.00 in0.0 mm 0.00 in0.0 mm 0.00 in0.0 mm
02:50 AM 54.1°F12.3°C 46.7°F8.2°C 76% 4.7 mph W7.6 kmh W 6.9 mph11.1 kmh 30.34 in1027.4 mb 0.00 in0.0 mm 0.00 in0.0 mm 0.00 in0.0 mm
02:55 AM 54.1°F12.3°C 46.7°F8.2°C 76% 5.0 mph W8.0 kmh W 7.6 mph12.2 kmh 30.34 in1027.4 mb 0.00 in0.0 mm 0.00 in0.0 mm 0.00 in0.0 mm
03:00 AM 54.1°F12.3°C 46.7°F8.2°C 76% 5.8 mph W9.3 kmh W 8.1 mph13.0 kmh 30.34 in1027.4 mb 0.00 in0.0 mm 0.00 in0.0 mm 0.00 in0.0 mm
03:05 AM 54.1°F12.3°C 46.7°F8.2°C 76% 5.8 mph W9.3 kmh W 7.4 mph11.9 kmh 30.34 in1027.4 mb 0.00 in0.0 mm 0.00 in0.0 mm 0.00 in0.0 mm
03:10 AM 54.1°F12.3°C 46.7°F8.2°C 76% 5.8 mph W9.3 kmh W 6.9 mph11.1 kmh 30.34 in1027.4 mb 0.00 in0.0 mm 0.00 in0.0 mm 0.00 in0.0 mm
03:15 AM 54.2°F12.3°C 46.8°F8.2°C 76% 5.7 mph W9.2 kmh W 8.1 mph13.0 kmh 30.34 in1027.4 mb 0.00 in0.0 mm 0.00 in0.0 mm 0.00 in0.0 mm
03:20 AM 54.1°F12.3°C 46.7°F8.2°C 76% 5.4 mph W8.7 kmh W 8.1 mph13.0 kmh 30.34 in1027.4 mb 0.00 in0.0 mm 0.00 in0.0 mm 0.00 in0.0 mm
03:25 AM 54.1°F12.3°C 46.7°F8.2°C 76% 5.6 mph W9.0 kmh W 8.5 mph13.7 kmh 30.34 in1027.4 mb 0.00 in0.0 mm 0.00 in0.0 mm 0.00 in0.0 mm
03:30 AM 54.2°F12.3°C 46.8°F8.2°C 76% 6.3 mph W10.1 kmh W 8.1 mph13.0 kmh 30.34 in1027.4 mb 0.00 in0.0 mm 0.00 in0.0 mm 0.00 in0.0 mm
03:35 AM 54.1°F12.3°C 46.8°F8.2°C 76% 6.0 mph W9.7 kmh W 6.3 mph10.1 kmh 30.34 in1027.4 mb 0.00 in0.0 mm 0.00 in0.0 mm 0.00 in0.0 mm
03:40 AM 54.1°F12.3°C 47.1°F8.4°C 77% 5.1 mph W8.2 kmh W 6.3 mph10.1 kmh 30.34 in1027.4 mb 0.00 in0.0 mm 0.00 in0.0 mm 0.00 in0.0 mm
03:45 AM 54.1°F12.3°C 47.1°F8.4°C 77% 4.9 mph W7.9 kmh W 6.3 mph10.1 kmh 30.34 in1027.4 mb 0.00 in0.0 mm 0.00 in0.0 mm 0.00 in0.0 mm
03:50 AM 54.1°F12.3°C 47.1°F8.4°C 77% 4.0 mph W6.4 kmh W 5.4 mph8.7 kmh 30.34 in1027.4 mb 0.00 in0.0 mm 0.00 in0.0 mm 0.00 in0.0 mm
03:55 AM 54.1°F12.3°C 47.1°F8.4°C 77% 4.0 mph W6.4 kmh W 5.8 mph9.3 kmh 30.34 in1027.4 mb 0.00 in0.0 mm 0.00 in0.0 mm 0.00 in0.0 mm
04:00 AM 54.1°F12.3°C 47.1°F8.4°C 77% 4.0 mph W6.4 kmh W 6.3 mph10.1 kmh 30.34 in1027.4 mb 0.00 in0.0 mm 0.00 in0.0 mm 0.00 in0.0 mm
04:05 AM 54.1°F12.3°C 47.1°F8.4°C 77% 4.1 mph W6.6 kmh W 5.4 mph8.7 kmh 30.34 in1027.4 mb 0.00 in0.0 mm 0.00 in0.0 mm 0.00 in0.0 mm
04:10 AM 54.1°F12.3°C 47.1°F8.4°C 77% 4.3 mph W6.9 kmh W 6.3 mph10.1 kmh 30.33 in1027.1 mb 0.00 in0.0 mm 0.00 in0.0 mm 0.00 in0.0 mm
04:15 AM 54.1°F12.3°C 47.1°F8.4°C 77% 4.4 mph W7.1 kmh W 6.5 mph10.5 kmh 30.33 in1027.1 mb 0.00 in0.0 mm 0.00 in0.0 mm 0.00 in0.0 mm
04:20 AM 54.1°F12.3°C 47.1°F8.4°C 77% 4.7 mph W7.6 kmh W 6.5 mph10.5 kmh 30.33 in1027.1 mb 0.00 in0.0 mm 0.00 in0.0 mm 0.00 in0.0 mm
04:25 AM 54.1°F12.3°C 47.1°F8.4°C 77% 4.8 mph W7.7 kmh W 7.4 mph11.9 kmh 30.33 in1027.1 mb 0.00 in0.0 mm 0.00 in0.0 mm 0.00 in0.0 mm
04:30 AM 54.1°F12.3°C 47.1°F8.4°C 77% 5.1 mph W8.2 kmh W 6.9 mph11.1 kmh 30.33 in1027.1 mb 0.00 in0.0 mm 0.00 in0.0 mm 0.00 in0.0 mm
04:35 AM 54.1°F12.3°C 47.1°F8.4°C 77% 5.1 mph W8.2 kmh W 6.5 mph10.5 kmh 30.33 in1027.1 mb 0.00 in0.0 mm 0.00 in0.0 mm 0.00 in0.0 mm
04:40 AM 54.1°F12.3°C 47.1°F8.4°C 77% 5.1 mph W8.2 kmh W 6.5 mph10.5 kmh 30.33 in1027.1 mb 0.00 in0.0 mm 0.00 in0.0 mm 0.00 in0.0 mm
04:45 AM 54.1°F12.3°C 47.3°F8.5°C 78% 4.9 mph W7.9 kmh W 5.1 mph8.2 kmh 30.32 in1026.8 mb 0.00 in0.0 mm 0.00 in0.0 mm 0.00 in0.0 mm
04:50 AM 54.1°F12.3°C 47.4°F8.6°C 78% 4.0 mph W6.4 kmh W 6.5 mph10.5 kmh 30.32 in1026.8 mb 0.00 in0.0 mm 0.00 in0.0 mm 0.00 in0.0 mm
04:55 AM 54.1°F12.3°C 47.4°F8.6°C 78% 4.0 mph W6.4 kmh W 7.4 mph11.9 kmh 30.32 in1026.8 mb 0.00 in0.0 mm 0.00 in0.0 mm 0.00 in0.0 mm
05:00 AM 54.1°F12.3°C 47.4°F8.6°C 78% 4.0 mph W6.4 kmh W 7.4 mph11.9 kmh 30.32 in1026.8 mb 0.00 in0.0 mm 0.00 in0.0 mm 0.00 in0.0 mm
05:05 AM 54.1°F12.3°C 47.4°F8.6°C 78% 4.2 mph W6.8 kmh W 7.4 mph11.9 kmh 30.32 in1026.8 mb 0.00 in0.0 mm 0.00 in0.0 mm 0.00 in0.0 mm
05:10 AM 54.1°F12.3°C 47.4°F8.6°C 78% 4.7 mph W7.6 kmh W 7.4 mph11.9 kmh 30.32 in1026.8 mb 0.00 in0.0 mm 0.00 in0.0 mm 0.00 in0.0 mm
05:15 AM 54.1°F12.3°C 47.4°F8.6°C 78% 4.8 mph W7.7 kmh W 7.6 mph12.2 kmh 30.32 in1026.8 mb 0.00 in0.0 mm 0.00 in0.0 mm 0.00 in0.0 mm
05:20 AM 54.1°F12.3°C 47.4°F8.6°C 78% 5.1 mph W8.2 kmh W 6.5 mph10.5 kmh 30.32 in1026.8 mb 0.00 in0.0 mm 0.00 in0.0 mm 0.00 in0.0 mm
05:25 AM 54.1°F12.3°C 47.1°F8.4°C 77% 4.9 mph W7.9 kmh W 5.8 mph9.3 kmh 30.32 in1026.8 mb 0.00 in0.0 mm 0.00 in0.0 mm 0.00 in0.0 mm
05:30 AM 54.1°F12.3°C 47.1°F8.4°C 77% 4.0 mph WSW6.4 kmh WSW 6.5 mph10.5 kmh 30.32 in1026.8 mb 0.00 in0.0 mm 0.00 in0.0 mm 0.00 in0.0 mm
05:35 AM 54.1°F12.3°C 47.1°F8.4°C 77% 4.1 mph WSW6.6 kmh WSW 5.8 mph9.3 kmh 30.32 in1026.8 mb 0.00 in0.0 mm 0.00 in0.0 mm 0.00 in0.0 mm
05:40 AM 54.0°F12.2°C 47.0°F8.3°C 77% 4.3 mph WSW6.9 kmh WSW 6.5 mph10.5 kmh 30.32 in1026.8 mb 0.00 in0.0 mm 0.00 in0.0 mm 0.00 in0.0 mm
05:45 AM 54.0°F12.2°C 46.9°F8.3°C 77% 4.4 mph WSW7.1 kmh WSW 6.3 mph10.1 kmh 30.32 in1026.8 mb 0.00 in0.0 mm 0.00 in0.0 mm 0.00 in0.0 mm
05:50 AM 54.0°F12.2°C 46.9°F8.3°C 77% 4.7 mph WSW7.6 kmh WSW 6.5 mph10.5 kmh 30.32 in1026.8 mb 0.00 in0.0 mm 0.00 in0.0 mm 0.00 in0.0 mm
05:55 AM 54.0°F12.2°C 46.9°F8.3°C 77% 4.7 mph WSW7.6 kmh WSW 7.6 mph12.2 kmh 30.32 in1026.8 mb 0.00 in0.0 mm 0.00 in0.0 mm 0.00 in0.0 mm
06:00 AM 54.0°F12.2°C 46.9°F8.3°C 77% 4.7 mph WSW7.6 kmh WSW 8.5 mph13.7 kmh 30.32 in1026.8 mb 0.00 in0.0 mm 0.00 in0.0 mm 0.00 in0.0 mm
06:05 AM 54.0°F12.2°C 46.9°F8.3°C 77% 5.0 mph WSW8.0 kmh WSW 8.5 mph13.7 kmh 30.32 in1026.8 mb 0.00 in0.0 mm 0.00 in0.0 mm 0.00 in0.0 mm
06:10 AM 54.0°F12.2°C 46.9°F8.3°C 77% 5.8 mph WSW9.3 kmh WSW 8.7 mph14.0 kmh 30.32 in1026.8 mb 0.00 in0.0 mm 0.00 in0.0 mm 0.00 in0.0 mm
06:15 AM 54.0°F12.2°C 46.9°F8.3°C 77% 5.8 mph WSW9.3 kmh WSW 8.1 mph13.0 kmh 30.32 in1026.8 mb 0.00 in0.0 mm 0.00 in0.0 mm 0.00 in0.0 mm
06:20 AM 54.0°F12.2°C 46.9°F8.3°C 77% 5.8 mph WSW9.3 kmh WSW 8.7 mph14.0 kmh 30.32 in1026.8 mb 0.00 in0.0 mm 0.00 in0.0 mm 0.00 in0.0 mm
06:25 AM 54.0°F12.2°C 46.9°F8.3°C 77% 5.9 mph WSW9.5 kmh WSW 8.7 mph14.0 kmh 30.32 in1026.8 mb 0.00 in0.0 mm 0.00 in0.0 mm 0.00 in0.0 mm
06:30 AM 54.0°F12.2°C 46.9°F8.3°C 77% 6.3 mph WSW10.1 kmh WSW 8.5 mph13.7 kmh 30.32 in1026.8 mb 0.00 in0.0 mm 0.00 in0.0 mm 0.00 in0.0 mm
06:35 AM 54.0°F12.2°C 46.9°F8.3°C 77% 6.3 mph WSW10.1 kmh WSW 8.5 mph13.7 kmh 30.32 in1026.8 mb 0.00 in0.0 mm 0.00 in0.0 mm 0.00 in0.0 mm
06:40 AM 53.9°F12.2°C 46.9°F8.3°C 77% 6.3 mph WSW10.1 kmh WSW 9.2 mph14.8 kmh 30.32 in1026.8 mb 0.00 in0.0 mm 0.00 in0.0 mm 0.00 in0.0 mm
06:45 AM 53.9°F12.2°C 46.9°F8.3°C 77% 6.4 mph WSW10.3 kmh WSW 10.1 mph16.3 kmh 30.32 in1026.8 mb 0.00 in0.0 mm 0.00 in0.0 mm 0.00 in0.0 mm
06:50 AM 53.9°F12.2°C 46.9°F8.3°C 77% 6.9 mph WSW11.1 kmh WSW 7.6 mph12.2 kmh 30.32 in1026.8 mb 0.00 in0.0 mm 0.00 in0.0 mm 0.00 in0.0 mm
06:55 AM 53.9°F12.2°C 46.9°F8.3°C 77% 6.7 mph WSW10.8 kmh WSW 8.5 mph13.7 kmh 30.32 in1026.8 mb 0.00 in0.0 mm 0.00 in0.0 mm 0.00 in0.0 mm
07:00 AM 54.0°F12.2°C 46.9°F8.3°C 77% 5.8 mph WSW9.3 kmh WSW 8.7 mph14.0 kmh 30.32 in1026.8 mb 0.00 in0.0 mm 0.00 in0.0 mm 0.00 in0.0 mm
07:05 AM 54.0°F12.2°C 46.6°F8.1°C 76% 5.8 mph WSW9.3 kmh WSW 8.5 mph13.7 kmh 30.32 in1026.8 mb 0.00 in0.0 mm 0.00 in0.0 mm 0.00 in0.0 mm
07:10 AM 54.0°F12.2°C 46.6°F8.1°C 76% 5.8 mph WSW9.3 kmh WSW 8.5 mph13.7 kmh 30.32 in1026.8 mb 0.00 in0.0 mm 0.00 in0.0 mm 0.00 in0.0 mm
07:15 AM 54.0°F12.2°C 46.6°F8.1°C 76% 6.0 mph WSW9.7 kmh WSW 9.6 mph15.4 kmh 30.32 in1026.8 mb 0.00 in0.0 mm 0.00 in0.0 mm 0.00 in0.0 mm
07:20 AM 54.0°F12.2°C 46.6°F8.1°C 76% 6.5 mph W10.5 kmh W 7.6 mph12.2 kmh 30.32 in1026.8 mb 0.00 in0.0 mm 0.00 in0.0 mm 0.00 in0.0 mm
07:25 AM 54.0°F12.2°C 46.6°F8.1°C 76% 6.3 mph W10.1 kmh W 7.4 mph11.9 kmh 30.32 in1026.8 mb 0.00 in0.0 mm 0.00 in0.0 mm 0.00 in0.0 mm
07:30 AM 54.0°F12.2°C 46.6°F8.1°C 76% 5.8 mph WSW9.3 kmh WSW 6.5 mph10.5 kmh 30.32 in1026.8 mb 0.00 in0.0 mm 0.00 in0.0 mm 0.00 in0.0 mm
07:35 AM 54.0°F12.2°C 46.6°F8.1°C 76% 5.4 mph W8.7 kmh W 5.8 mph9.3 kmh 30.32 in1026.8 mb 0.00 in0.0 mm 0.00 in0.0 mm 0.00 in0.0 mm
07:40 AM 54.0°F12.2°C 46.6°F8.1°C 76% 4.0 mph W6.4 kmh W 4.7 mph7.6 kmh 30.33 in1027.1 mb 0.00 in0.0 mm 0.00 in0.0 mm 0.00 in0.0 mm
07:45 AM 54.0°F12.2°C 46.3°F7.9°C 75% 3.8 mph W6.1 kmh W 4.3 mph6.9 kmh 30.33 in1027.1 mb 0.00 in0.0 mm 0.00 in0.0 mm 0.00 in0.0 mm
07:50 AM 54.0°F12.2°C 46.2°F7.9°C 75% 3.1 mph W5.0 kmh W 4.0 mph6.4 kmh 30.33 in1027.1 mb 0.00 in0.0 mm 0.00 in0.0 mm 0.00 in0.0 mm
07:55 AM 54.0°F12.2°C 46.2°F7.9°C 75% 3.1 mph W5.0 kmh W 4.0 mph6.4 kmh 30.34 in1027.4 mb 0.00 in0.0 mm 0.00 in0.0 mm 0.00 in0.0 mm
08:00 AM 54.0°F12.2°C 46.2°F7.9°C 75% 2.9 mph W4.7 kmh W 3.1 mph5.0 kmh 30.34 in1027.4 mb 0.00 in0.0 mm 0.00 in0.0 mm 0.00 in0.0 mm
08:05 AM 54.0°F12.2°C 46.2°F7.9°C 75% 2.9 mph W4.7 kmh W 4.0 mph6.4 kmh 30.34 in1027.4 mb 0.00 in0.0 mm 0.00 in0.0 mm 0.00 in0.0 mm
08:10 AM 54.0°F12.2°C 46.2°F7.9°C 75% 2.9 mph W4.7 kmh W 5.1 mph8.2 kmh 30.34 in1027.4 mb 0.00 in0.0 mm 0.00 in0.0 mm 0.00 in0.0 mm
08:15 AM 54.0°F12.2°C 46.3°F7.9°C 75% 2.9 mph W4.7 kmh W 4.3 mph6.9 kmh 30.34 in1027.4 mb 0.00 in0.0 mm 0.00 in0.0 mm 0.00 in0.0 mm
08:20 AM 54.0°F12.2°C 46.2°F7.9°C 75% 2.9 mph WSW4.7 kmh WSW 3.6 mph5.8 kmh 30.34 in1027.4 mb 0.00 in0.0 mm 0.00 in0.0 mm 0.00 in0.0 mm
08:25 AM 54.0°F12.2°C 46.2°F7.9°C 75% 2.9 mph WSW4.7 kmh WSW 4.0 mph6.4 kmh 30.35 in1027.8 mb 0.00 in0.0 mm 0.00 in0.0 mm 0.00 in0.0 mm
08:30 AM 54.1°F12.3°C 46.3°F7.9°C 75% 2.9 mph WSW4.7 kmh WSW 6.5 mph10.5 kmh 30.35 in1027.8 mb 0.00 in0.0 mm 0.00 in0.0 mm 0.00 in0.0 mm
08:35 AM 54.1°F12.3°C 46.4°F8.0°C 75% 3.2 mph WSW5.1 kmh WSW 6.5 mph10.5 kmh 30.35 in1027.8 mb 0.00 in0.0 mm 0.00 in0.0 mm 0.00 in0.0 mm
08:40 AM 54.1°F12.3°C 46.3°F7.9°C 75% 4.0 mph SW6.4 kmh SW 6.3 mph10.1 kmh 30.35 in1027.8 mb 0.00 in0.0 mm 0.00 in0.0 mm 0.00 in0.0 mm
08:45 AM 54.0°F12.2°C 46.2°F7.9°C 75% 4.1 mph SW6.6 kmh SW 6.3 mph10.1 kmh 30.36 in1028.1 mb 0.00 in0.0 mm 0.00 in0.0 mm 0.00 in0.0 mm
08:50 AM 54.0°F12.2°C 46.2°F7.9°C 75% 4.3 mph WSW6.9 kmh WSW 8.1 mph13.0 kmh 30.36 in1028.1 mb 0.00 in0.0 mm 0.00 in0.0 mm 0.00 in0.0 mm
08:55 AM 54.0°F12.2°C 46.3°F7.9°C 75% 4.5 mph WSW7.2 kmh WSW 6.5 mph10.5 kmh 30.36 in1028.1 mb 0.00 in0.0 mm 0.00 in0.0 mm 0.00 in0.0 mm
09:00 AM 54.1°F12.3°C 46.3°F7.9°C 75% 5.1 mph WSW8.2 kmh WSW 5.1 mph8.2 kmh 30.36 in1028.1 mb 0.00 in0.0 mm 0.00 in0.0 mm 0.00 in0.0 mm
09:05 AM 54.1°F12.3°C 46.4°F8.0°C 75% 4.5 mph WSW7.2 kmh WSW 5.1 mph8.2 kmh 30.36 in1028.1 mb 0.00 in0.0 mm 0.00 in0.0 mm 0.00 in0.0 mm
09:10 AM 54.1°F12.3°C 46.4°F8.0°C 75% 2.5 mph WSW4.0 kmh WSW 5.1 mph8.2 kmh 30.36 in1028.1 mb 0.00 in0.0 mm 0.00 in0.0 mm 0.00 in0.0 mm
09:15 AM 54.1°F12.3°C 46.4°F8.0°C 75% 2.6 mph WSW4.2 kmh WSW 4.3 mph6.9 kmh 30.37 in1028.4 mb 0.00 in0.0 mm 0.00 in0.0 mm 0.00 in0.0 mm
09:20 AM 54.1°F12.3°C 46.4°F8.0°C 75% 2.9 mph WSW4.7 kmh WSW 5.1 mph8.2 kmh 30.37 in1028.4 mb 0.00 in0.0 mm 0.00 in0.0 mm 0.00 in0.0 mm
09:25 AM 54.2°F12.3°C 46.4°F8.0°C 75% 3.0 mph WSW4.8 kmh WSW 5.4 mph8.7 kmh 30.37 in1028.4 mb 0.00 in0.0 mm 0.00 in0.0 mm 0.00 in0.0 mm
09:30 AM 54.3°F12.4°C 46.4°F8.0°C 75% 3.1 mph WSW5.0 kmh WSW 5.4 mph8.7 kmh 30.37 in1028.4 mb 0.00 in0.0 mm 0.00 in0.0 mm 0.00 in0.0 mm
09:35 AM 54.3°F12.4°C 46.5°F8.1°C 75% 3.3 mph WSW5.3 kmh WSW 5.4 mph8.7 kmh 30.37 in1028.4 mb 0.00 in0.0 mm 0.00 in0.0 mm 0.00 in0.0 mm
09:40 AM 54.3°F12.4°C 46.6°F8.1°C 75% 4.0 mph W6.4 kmh W 5.8 mph9.3 kmh 30.37 in1028.4 mb 0.00 in0.0 mm 0.00 in0.0 mm 0.00 in0.0 mm
09:45 AM 54.4°F12.4°C 46.4°F8.0°C 74% 4.2 mph W6.8 kmh W 5.4 mph8.7 kmh 30.37 in1028.4 mb 0.00 in0.0 mm 0.00 in0.0 mm 0.00 in0.0 mm
09:50 AM 54.7°F12.6°C 46.5°F8.1°C 74% 4.7 mph W7.6 kmh W 6.3 mph10.1 kmh 30.37 in1028.4 mb 0.00 in0.0 mm 0.00 in0.0 mm 0.00 in0.0 mm
09:55 AM 54.8°F12.7°C 46.7°F8.2°C 74% 4.6 mph W7.4 kmh W 5.8 mph9.3 kmh 30.37 in1028.4 mb 0.00 in0.0 mm 0.00 in0.0 mm 0.00 in0.0 mm
10:00 AM 55.0°F12.8°C 46.8°F8.2°C 74% 4.3 mph W6.9 kmh W 5.8 mph9.3 kmh 30.38 in1028.8 mb 0.00 in0.0 mm 0.00 in0.0 mm 0.00 in0.0 mm
10:05 AM 55.2°F12.9°C 47.0°F8.3°C 74% 4.4 mph W7.1 kmh W 6.5 mph10.5 kmh 30.38 in1028.8 mb 0.00 in0.0 mm 0.00 in0.0 mm 0.00 in0.0 mm
10:10 AM 55.5°F13.1°C 47.3°F8.5°C 74% 4.7 mph WNW7.6 kmh WNW 6.3 mph10.1 kmh 30.38 in1028.8 mb 0.00 in0.0 mm 0.00 in0.0 mm 0.00 in0.0 mm
10:15 AM 55.7°F13.2°C 47.5°F8.6°C 74% 4.4 mph WNW7.1 kmh WNW 5.4 mph8.7 kmh 30.38 in1028.8 mb 0.00 in0.0 mm 0.00 in0.0 mm 0.00 in0.0 mm
10:20 AM 56.0°F13.3°C 47.8°F8.8°C 74% 3.6 mph NW5.8 kmh NW 4.3 mph6.9 kmh 30.38 in1028.8 mb 0.00 in0.0 mm 0.00 in0.0 mm 0.00 in0.0 mm
10:25 AM 56.2°F13.4°C 47.6°F8.7°C 73% 3.5 mph NW5.6 kmh NW 8.5 mph13.7 kmh 30.38 in1028.8 mb 0.00 in0.0 mm 0.00 in0.0 mm 0.00 in0.0 mm
10:30 AM 56.5°F13.6°C 47.6°F8.7°C 72% 3.1 mph NW5.0 kmh NW 6.3 mph10.1 kmh 30.38 in1028.8 mb 0.00 in0.0 mm 0.00 in0.0 mm 0.00 in0.0 mm
10:35 AM 56.7°F13.7°C 47.5°F8.6°C 71% 3.3 mph NW5.3 kmh NW 4.7 mph7.6 kmh 30.38 in1028.8 mb 0.00 in0.0 mm 0.00 in0.0 mm 0.00 in0.0 mm
10:40 AM 56.9°F13.8°C 47.6°F8.7°C 71% 4.0 mph NW6.4 kmh NW 6.3 mph10.1 kmh 30.38 in1028.8 mb 0.00 in0.0 mm 0.00 in0.0 mm 0.00 in0.0 mm
10:45 AM 57.1°F13.9°C 47.5°F8.6°C 70% 3.8 mph NW6.1 kmh NW 5.1 mph8.2 kmh 30.38 in1028.8 mb 0.00 in0.0 mm 0.00 in0.0 mm 0.00 in0.0 mm
10:50 AM 57.4°F14.1°C 47.6°F8.7°C 70% 3.1 mph NW5.0 kmh NW 6.5 mph10.5 kmh 30.38 in1028.8 mb 0.00 in0.0 mm 0.00 in0.0 mm 0.00 in0.0 mm
10:55 AM 57.5°F14.2°C 47.1°F8.4°C 68% 3.1 mph NW5.0 kmh NW 4.7 mph7.6 kmh 30.38 in1028.8 mb 0.00 in0.0 mm 0.00 in0.0 mm 0.00 in0.0 mm
11:00 AM 57.6°F14.2°C 46.8°F8.2°C 67% 2.9 mph NW4.7 kmh NW 6.5 mph10.5 kmh 30.38 in1028.8 mb 0.00 in0.0 mm 0.00 in0.0 mm 0.00 in0.0 mm
11:05 AM 57.6°F14.2°C 46.8°F8.2°C 67% 3.1 mph NNW5.0 kmh NNW 8.7 mph14.0 kmh 30.38 in1028.8 mb 0.00 in0.0 mm 0.00 in0.0 mm 0.00 in0.0 mm
11:10 AM 57.6°F14.2°C 46.8°F8.2°C 67% 3.6 mph N5.8 kmh N 8.5 mph13.7 kmh 30.38 in1028.8 mb 0.00 in0.0 mm 0.00 in0.0 mm 0.00 in0.0 mm
11:15 AM 57.6°F14.2°C 47.1°F8.4°C 68% 3.7 mph N6.0 kmh N 8.7 mph14.0 kmh 30.38 in1028.8 mb 0.00 in0.0 mm 0.00 in0.0 mm 0.00 in0.0 mm
11:20 AM 57.5°F14.2°C 47.1°F8.4°C 68% 4.3 mph N6.9 kmh N 10.1 mph16.3 kmh 30.38 in1028.8 mb 0.00 in0.0 mm 0.00 in0.0 mm 0.00 in0.0 mm
11:25 AM 57.5°F14.2°C 47.3°F8.5°C 69% 4.6 mph N7.4 kmh N 7.4 mph11.9 kmh 30.38 in1028.8 mb 0.00 in0.0 mm 0.00 in0.0 mm 0.00 in0.0 mm
11:30 AM 57.6°F14.2°C 47.5°F8.6°C 69% 5.8 mph NNE9.3 kmh NNE 8.7 mph14.0 kmh 30.38 in1028.8 mb 0.00 in0.0 mm 0.00 in0.0 mm 0.00 in0.0 mm
11:35 AM 57.7°F14.3°C 47.7°F8.7°C 69% 5.5 mph NNE8.9 kmh NNE 6.9 mph11.1 kmh 30.38 in1028.8 mb 0.00 in0.0 mm 0.00 in0.0 mm 0.00 in0.0 mm
11:40 AM 57.7°F14.3°C 47.9°F8.8°C 70% 4.3 mph NNE6.9 kmh NNE 8.5 mph13.7 kmh 30.38 in1028.8 mb 0.00 in0.0 mm 0.00 in0.0 mm 0.00 in0.0 mm
11:45 AM 57.7°F14.3°C 47.8°F8.8°C 70% 4.6 mph NNE7.4 kmh NNE 10.1 mph16.3 kmh 30.38 in1028.8 mb 0.00 in0.0 mm 0.00 in0.0 mm 0.00 in0.0 mm
11:50 AM 57.7°F14.3°C 47.9°F8.8°C 70% 5.8 mph NNE9.3 kmh NNE 7.6 mph12.2 kmh 30.38 in1028.8 mb 0.00 in0.0 mm 0.00 in0.0 mm 0.00 in0.0 mm
11:55 AM 57.8°F14.3°C 47.8°F8.8°C 69% 5.8 mph NNE9.3 kmh NNE 9.2 mph14.8 kmh 30.37 in1028.4 mb 0.00 in0.0 mm 0.00 in0.0 mm 0.00 in0.0 mm
12:00 PM 57.9°F14.4°C 47.5°F8.6°C 68% 5.8 mph NE9.3 kmh NE 6.9 mph11.1 kmh 30.37 in1028.4 mb 0.00 in0.0 mm 0.00 in0.0 mm 0.00 in0.0 mm
12:05 PM 58.2°F14.6°C 47.3°F8.5°C 67% 5.5 mph NE8.9 kmh NE 6.9 mph11.1 kmh 30.37 in1028.4 mb 0.00 in0.0 mm 0.00 in0.0 mm 0.00 in0.0 mm
12:10 PM 58.5°F14.7°C 47.4°F8.6°C 67% 4.3 mph NNE6.9 kmh NNE 5.8 mph9.3 kmh 30.37 in1028.4 mb 0.00 in0.0 mm 0.00 in0.0 mm 0.00 in0.0 mm
12:15 PM 58.7°F14.8°C 47.2°F8.4°C 66% 4.0 mph NNE6.4 kmh NNE 9.6 mph15.4 kmh 30.37 in1028.4 mb 0.00 in0.0 mm 0.00 in0.0 mm 0.00 in0.0 mm
12:20 PM 59.1°F15.1°C 46.4°F8.0°C 63% 3.1 mph N5.0 kmh N 9.2 mph14.8 kmh 30.37 in1028.4 mb 0.00 in0.0 mm 0.00 in0.0 mm 0.00 in0.0 mm
12:25 PM 59.2°F15.1°C 45.6°F7.6°C 61% 3.6 mph N5.8 kmh N 11.4 mph18.3 kmh 30.36 in1028.1 mb 0.00 in0.0 mm 0.00 in0.0 mm 0.00 in0.0 mm
12:30 PM 59.4°F15.2°C 45.3°F7.4°C 60% 5.4 mph N8.7 kmh N 10.7 mph17.2 kmh 30.35 in1027.8 mb 0.00 in0.0 mm 0.00 in0.0 mm 0.00 in0.0 mm
12:35 PM 59.6°F15.3°C 45.3°F7.4°C 59% 5.6 mph N9.0 kmh N 11.2 mph18.0 kmh 30.35 in1027.8 mb 0.00 in0.0 mm 0.00 in0.0 mm 0.00 in0.0 mm
12:40 PM 59.7°F15.4°C 45.4°F7.4°C 59% 6.5 mph NNE10.5 kmh NNE 10.7 mph17.2 kmh 30.35 in1027.8 mb 0.00 in0.0 mm 0.00 in0.0 mm 0.00 in0.0 mm
12:45 PM 59.7°F15.4°C 45.4°F7.4°C 59% 6.4 mph NNE10.3 kmh NNE 11.2 mph18.0 kmh 30.35 in1027.8 mb 0.00 in0.0 mm 0.00 in0.0 mm 0.00 in0.0 mm
12:50 PM 60.0°F15.6°C 46.0°F7.8°C 60% 6.3 mph NE10.1 kmh NE 11.4 mph18.3 kmh 30.35 in1027.8 mb 0.00 in0.0 mm 0.00 in0.0 mm 0.00 in0.0 mm
12:55 PM 60.0°F15.6°C 46.1°F7.8°C 60% 6.6 mph NE10.6 kmh NE 15.2 mph24.5 kmh 30.35 in1027.8 mb 0.00 in0.0 mm 0.00 in0.0 mm 0.00 in0.0 mm
01:00 PM 59.8°F15.4°C 46.3°F7.9°C 61% 7.6 mph NE12.2 kmh NE 14.1 mph22.7 kmh 30.35 in1027.8 mb 0.00 in0.0 mm 0.00 in0.0 mm 0.00 in0.0 mm
01:05 PM 59.9°F15.5°C 46.1°F7.8°C 60% 8.2 mph NE13.2 kmh NE 15.2 mph24.5 kmh 30.35 in1027.8 mb 0.00 in0.0 mm 0.00 in0.0 mm 0.00 in0.0 mm
01:10 PM 59.7°F15.4°C 46.2°F7.9°C 61% 10.1 mph ENE16.3 kmh ENE 13.4 mph21.6 kmh 30.35 in1027.8 mb 0.00 in0.0 mm 0.00 in0.0 mm 0.00 in0.0 mm
01:15 PM 59.8°F15.4°C 46.3°F7.9°C 61% 10.0 mph ENE16.1 kmh ENE 15.7 mph25.3 kmh 30.35 in1027.8 mb 0.00 in0.0 mm 0.00 in0.0 mm 0.00 in0.0 mm
01:20 PM 59.8°F15.4°C 46.7°F8.2°C 62% 9.6 mph ENE15.4 kmh ENE 14.1 mph22.7 kmh 30.35 in1027.8 mb 0.00 in0.0 mm 0.00 in0.0 mm 0.00 in0.0 mm
01:25 PM 59.7°F15.4°C 46.7°F8.2°C 62% 9.9 mph ENE15.9 kmh ENE 18.1 mph29.1 kmh 30.34 in1027.4 mb 0.00 in0.0 mm 0.00 in0.0 mm 0.00 in0.0 mm
01:30 PM 59.6°F15.3°C 46.8°F8.2°C 63% 10.7 mph ENE17.2 kmh ENE 15.2 mph24.5 kmh 30.34 in1027.4 mb 0.00 in0.0 mm 0.00 in0.0 mm 0.00 in0.0 mm
01:35 PM 60.0°F15.6°C 47.0°F8.3°C 62% 10.6 mph ENE17.1 kmh ENE 16.8 mph27.0 kmh 30.34 in1027.4 mb 0.00 in0.0 mm 0.00 in0.0 mm 0.00 in0.0 mm
01:40 PM 60.3°F15.7°C 47.2°F8.4°C 62% 10.1 mph NE16.3 kmh NE 19.0 mph30.6 kmh 30.34 in1027.4 mb 0.00 in0.0 mm 0.00 in0.0 mm 0.00 in0.0 mm
01:45 PM 60.3°F15.7°C 47.1°F8.4°C 62% 10.3 mph NE16.6 kmh NE 17.9 mph28.8 kmh 30.34 in1027.4 mb 0.00 in0.0 mm 0.00 in0.0 mm 0.00 in0.0 mm
01:50 PM 60.0°F15.6°C 47.2°F8.4°C 63% 11.2 mph NE18.0 kmh NE 18.1 mph29.1 kmh 30.34 in1027.4 mb 0.00 in0.0 mm 0.00 in0.0 mm 0.00 in0.0 mm
01:55 PM 59.7°F15.4°C 47.1°F8.4°C 63% 11.2 mph NE18.0 kmh NE 14.8 mph23.8 kmh 30.33 in1027.1 mb 0.00 in0.0 mm 0.00 in0.0 mm 0.00 in0.0 mm
02:00 PM 59.7°F15.4°C 47.4°F8.6°C 64% 11.4 mph NE18.3 kmh NE 11.4 mph18.3 kmh 30.33 in1027.1 mb 0.00 in0.0 mm 0.00 in0.0 mm 0.00 in0.0 mm
02:05 PM 59.8°F15.4°C 47.7°F8.7°C 64% 10.6 mph NE17.1 kmh NE 14.8 mph23.8 kmh 30.33 in1027.1 mb 0.00 in0.0 mm 0.00 in0.0 mm 0.00 in0.0 mm
02:10 PM 59.6°F15.3°C 48.1°F8.9°C 66% 7.6 mph NE12.2 kmh NE 15.7 mph25.3 kmh 30.33 in1027.1 mb 0.00 in0.0 mm 0.00 in0.0 mm 0.00 in0.0 mm
02:15 PM 59.2°F15.1°C 48.4°F9.1°C 67% 8.5 mph NE13.7 kmh NE 20.1 mph32.3 kmh 30.33 in1027.1 mb 0.00 in0.0 mm 0.00 in0.0 mm 0.00 in0.0 mm
02:20 PM 58.7°F14.8°C 48.8°F9.3°C 70% 11.4 mph ENE18.3 kmh ENE 18.1 mph29.1 kmh 30.33 in1027.1 mb 0.00 in0.0 mm 0.00 in0.0 mm 0.00 in0.0 mm
02:25 PM 58.6°F14.8°C 49.2°F9.6°C 71% 11.4 mph ENE18.3 kmh ENE 15.2 mph24.5 kmh 30.33 in1027.1 mb 0.00 in0.0 mm 0.00 in0.0 mm 0.00 in0.0 mm
02:30 PM 58.5°F14.7°C 48.9°F9.4°C 70% 11.4 mph NE18.3 kmh NE 23.7 mph38.1 kmh 30.33 in1027.1 mb 0.00 in0.0 mm 0.00 in0.0 mm 0.00 in0.0 mm
02:35 PM 58.1°F14.5°C 48.9°F9.4°C 71% 11.9 mph NE19.2 kmh NE 20.8 mph33.5 kmh 30.33 in1027.1 mb 0.00 in0.0 mm 0.00 in0.0 mm 0.00 in0.0 mm
02:40 PM 57.9°F14.4°C 49.3°F9.6°C 73% 13.4 mph NE21.6 kmh NE 14.1 mph22.7 kmh 30.34 in1027.4 mb 0.00 in0.0 mm 0.00 in0.0 mm 0.00 in0.0 mm
02:45 PM 57.8°F14.3°C 48.9°F9.4°C 72% 12.9 mph NE20.8 kmh NE 26.2 mph42.2 kmh 30.34 in1027.4 mb 0.00 in0.0 mm 0.00 in0.0 mm 0.00 in0.0 mm
02:50 PM 57.3°F14.1°C 47.9°F8.8°C 71% 11.2 mph NE18.0 kmh NE 17.9 mph28.8 kmh 30.34 in1027.4 mb 0.00 in0.0 mm 0.00 in0.0 mm 0.00 in0.0 mm
02:55 PM 57.0°F13.9°C 47.6°F8.7°C 71% 10.7 mph NE17.2 kmh NE 11.2 mph18.0 kmh 30.34 in1027.4 mb 0.00 in0.0 mm 0.00 in0.0 mm 0.00 in0.0 mm
03:00 PM 57.1°F13.9°C 48.0°F8.9°C 72% 9.2 mph NE14.8 kmh NE 14.1 mph22.7 kmh 30.34 in1027.4 mb 0.00 in0.0 mm 0.00 in0.0 mm 0.00 in0.0 mm
03:05 PM 57.5°F14.2°C 48.5°F9.2°C 72% 8.9 mph NE14.3 kmh NE 15.7 mph25.3 kmh 30.34 in1027.4 mb 0.00 in0.0 mm 0.00 in0.0 mm 0.00 in0.0 mm
03:10 PM 57.8°F14.3°C 48.8°F9.3°C 72% 8.1 mph NE13.0 kmh NE 12.5 mph20.1 kmh 30.34 in1027.4 mb 0.00 in0.0 mm 0.00 in0.0 mm 0.00 in0.0 mm
03:15 PM 58.2°F14.6°C 48.6°F9.2°C 70% 8.2 mph NE13.2 kmh NE 13.0 mph20.9 kmh 30.34 in1027.4 mb 0.00 in0.0 mm 0.00 in0.0 mm 0.00 in0.0 mm
03:20 PM 58.5°F14.7°C 48.4°F9.1°C 69% 8.5 mph NE13.7 kmh NE 10.1 mph16.3 kmh 30.34 in1027.4 mb 0.00 in0.0 mm 0.00 in0.0 mm 0.00 in0.0 mm
03:25 PM 58.7°F14.8°C 48.1°F8.9°C 68% 8.1 mph NE13.0 kmh NE 13.4 mph21.6 kmh 30.34 in1027.4 mb 0.00 in0.0 mm 0.00 in0.0 mm 0.00 in0.0 mm
03:30 PM 59.1°F15.1°C 47.4°F8.6°C 65% 6.9 mph NE11.1 kmh NE 13.6 mph21.9 kmh 30.34 in1027.4 mb 0.00 in0.0 mm 0.00 in0.0 mm 0.00 in0.0 mm
03:35 PM 59.3°F15.2°C 47.2°F8.4°C 64% 6.8 mph NE10.9 kmh NE 13.0 mph20.9 kmh 30.34 in1027.4 mb 0.00 in0.0 mm 0.00 in0.0 mm 0.00 in0.0 mm
03:40 PM 59.4°F15.2°C 47.2°F8.4°C 64% 6.3 mph NE10.1 kmh NE 15.7 mph25.3 kmh 30.34 in1027.4 mb 0.00 in0.0 mm 0.00 in0.0 mm 0.00 in0.0 mm
03:45 PM 59.4°F15.2°C 47.2°F8.4°C 64% 7.1 mph NE11.4 kmh NE 14.8 mph23.8 kmh 30.34 in1027.4 mb 0.00 in0.0 mm 0.00 in0.0 mm 0.00 in0.0 mm
03:50 PM 59.4°F15.2°C 47.2°F8.4°C 64% 10.1 mph ENE16.3 kmh ENE 11.4 mph18.3 kmh 30.34 in1027.4 mb 0.00 in0.0 mm 0.00 in0.0 mm 0.00 in0.0 mm
03:55 PM 59.3°F15.2°C 47.3°F8.5°C 64% 9.3 mph NE15.0 kmh NE 10.1 mph16.3 kmh 30.34 in1027.4 mb 0.00 in0.0 mm 0.00 in0.0 mm 0.00 in0.0 mm
04:00 PM 59.2°F15.1°C 47.6°F8.7°C 65% 6.5 mph NE10.5 kmh NE 14.5 mph23.3 kmh 30.34 in1027.4 mb 0.00 in0.0 mm 0.00 in0.0 mm 0.00 in0.0 mm
04:05 PM 58.9°F14.9°C 48.0°F8.9°C 67% 7.2 mph NE11.6 kmh NE 13.6 mph21.9 kmh 30.34 in1027.4 mb 0.00 in0.0 mm 0.00 in0.0 mm 0.00 in0.0 mm
04:10 PM 58.8°F14.9°C 48.4°F9.1°C 68% 9.6 mph ENE15.4 kmh ENE 11.4 mph18.3 kmh 30.35 in1027.8 mb 0.00 in0.0 mm 0.00 in0.0 mm 0.00 in0.0 mm
04:15 PM 58.8°F14.9°C 48.7°F9.3°C 69% 9.0 mph ENE14.5 kmh ENE 12.3 mph19.8 kmh 30.35 in1027.8 mb 0.00 in0.0 mm 0.00 in0.0 mm 0.00 in0.0 mm
04:20 PM 58.8°F14.9°C 48.8°F9.3°C 69% 6.9 mph NE11.1 kmh NE 10.7 mph17.2 kmh 30.35 in1027.8 mb 0.00 in0.0 mm 0.00 in0.0 mm 0.00 in0.0 mm
04:25 PM 58.8°F14.9°C 48.9°F9.4°C 70% 6.8 mph NE10.9 kmh NE 10.1 mph16.3 kmh 30.35 in1027.8 mb 0.00 in0.0 mm 0.00 in0.0 mm 0.00 in0.0 mm
04:30 PM 59.0°F15.0°C 49.0°F9.4°C 69% 6.3 mph NE10.1 kmh NE 9.6 mph15.4 kmh 30.35 in1027.8 mb 0.00 in0.0 mm 0.00 in0.0 mm 0.00 in0.0 mm
04:35 PM 59.0°F15.0°C 48.9°F9.4°C 69% 6.5 mph NE10.5 kmh NE 16.8 mph27.0 kmh 30.35 in1027.8 mb 0.00 in0.0 mm 0.00 in0.0 mm 0.00 in0.0 mm
04:40 PM 58.7°F14.8°C 49.0°F9.4°C 70% 7.4 mph NE11.9 kmh NE 16.3 mph26.2 kmh 30.35 in1027.8 mb 0.00 in0.0 mm 0.00 in0.0 mm 0.00 in0.0 mm
04:45 PM 58.6°F14.8°C 49.2°F9.6°C 71% 8.3 mph NE13.4 kmh NE 21.3 mph34.3 kmh 30.35 in1027.8 mb 0.00 in0.0 mm 0.00 in0.0 mm 0.00 in0.0 mm
04:50 PM 58.5°F14.7°C 49.1°F9.5°C 71% 11.4 mph ENE18.3 kmh ENE 19.2 mph30.9 kmh 30.35 in1027.8 mb 0.00 in0.0 mm 0.00 in0.0 mm 0.00 in0.0 mm
04:55 PM 58.4°F14.7°C 49.0°F9.4°C 71% 11.6 mph ENE18.7 kmh ENE 20.1 mph32.3 kmh 30.35 in1027.8 mb 0.00 in0.0 mm 0.00 in0.0 mm 0.00 in0.0 mm
05:00 PM 58.2°F14.6°C 49.0°F9.4°C 71% 12.3 mph ENE19.8 kmh ENE 15.7 mph25.3 kmh 30.35 in1027.8 mb 0.00 in0.0 mm 0.00 in0.0 mm 0.00 in0.0 mm
05:05 PM 58.1°F14.5°C 49.1°F9.5°C 72% 11.9 mph ENE19.2 kmh ENE 18.1 mph29.1 kmh 30.35 in1027.8 mb 0.00 in0.0 mm 0.00 in0.0 mm 0.00 in0.0 mm
05:10 PM 57.9°F14.4°C 49.0°F9.4°C 72% 10.3 mph NE16.6 kmh NE 15.7 mph25.3 kmh 30.35 in1027.8 mb 0.00 in0.0 mm 0.00 in0.0 mm 0.00 in0.0 mm
05:15 PM 57.9°F14.4°C 48.9°F9.4°C 72% 10.1 mph NE16.3 kmh NE 15.7 mph25.3 kmh 30.35 in1027.8 mb 0.00 in0.0 mm 0.00 in0.0 mm 0.00 in0.0 mm
05:20 PM 57.8°F14.3°C 48.8°F9.3°C 72% 9.6 mph ENE15.4 kmh ENE 15.2 mph24.5 kmh 30.35 in1027.8 mb 0.00 in0.0 mm 0.00 in0.0 mm 0.00 in0.0 mm
05:25 PM 57.7°F14.3°C 48.9°F9.4°C 72% 9.4 mph ENE15.1 kmh ENE 11.4 mph18.3 kmh 30.36 in1028.1 mb 0.00 in0.0 mm 0.00 in0.0 mm 0.00 in0.0 mm
05:30 PM 57.7°F14.3°C 49.1°F9.5°C 73% 8.5 mph NE13.7 kmh NE 17.0 mph27.4 kmh 30.36 in1028.1 mb 0.00 in0.0 mm 0.00 in0.0 mm 0.00 in0.0 mm
05:35 PM 57.7°F14.3°C 49.2°F9.6°C 73% 9.0 mph ENE14.5 kmh ENE 15.9 mph25.6 kmh 30.36 in1028.1 mb 0.00 in0.0 mm 0.00 in0.0 mm 0.00 in0.0 mm
05:40 PM 57.6°F14.2°C 49.3°F9.6°C 74% 10.7 mph ENE17.2 kmh ENE 14.8 mph23.8 kmh 30.36 in1028.1 mb 0.00 in0.0 mm 0.00 in0.0 mm 0.00 in0.0 mm
05:45 PM 57.6°F14.2°C 49.3°F9.6°C 74% 10.4 mph ENE16.7 kmh ENE 13.0 mph20.9 kmh 30.36 in1028.1 mb 0.00 in0.0 mm 0.00 in0.0 mm 0.00 in0.0 mm
05:50 PM 57.5°F14.2°C 49.3°F9.6°C 74% 9.2 mph ENE14.8 kmh ENE 14.8 mph23.8 kmh 30.36 in1028.1 mb 0.00 in0.0 mm 0.00 in0.0 mm 0.00 in0.0 mm
05:55 PM 57.4°F14.1°C 49.4°F9.7°C 75% 9.0 mph ENE14.5 kmh ENE 11.9 mph19.2 kmh 30.36 in1028.1 mb 0.00 in0.0 mm 0.00 in0.0 mm 0.00 in0.0 mm
06:00 PM 57.4°F14.1°C 49.5°F9.7°C 75% 8.5 mph ENE13.7 kmh ENE 11.2 mph18.0 kmh 30.36 in1028.1 mb 0.00 in0.0 mm 0.00 in0.0 mm 0.00 in0.0 mm
06:05 PM 57.4°F14.1°C 49.5°F9.7°C 75% 8.2 mph ENE13.2 kmh ENE 14.8 mph23.8 kmh 30.36 in1028.1 mb 0.00 in0.0 mm 0.00 in0.0 mm 0.00 in0.0 mm
06:10 PM 57.4°F14.1°C 49.5°F9.7°C 75% 7.4 mph NE11.9 kmh NE 14.8 mph23.8 kmh 30.36 in1028.1 mb 0.00 in0.0 mm 0.00 in0.0 mm 0.00 in0.0 mm
06:15 PM 57.4°F14.1°C 49.2°F9.6°C 74% 7.9 mph NE12.7 kmh NE 16.8 mph27.0 kmh 30.36 in1028.1 mb 0.00 in0.0 mm 0.00 in0.0 mm 0.00 in0.0 mm
06:20 PM 57.4°F14.1°C 49.4°F9.7°C 75% 9.6 mph NE15.4 kmh NE 15.9 mph25.6 kmh 30.36 in1028.1 mb 0.00 in0.0 mm 0.00 in0.0 mm 0.00 in0.0 mm
06:25 PM 57.4°F14.1°C 49.5°F9.7°C 75% 9.4 mph NE15.1 kmh NE 14.5 mph23.3 kmh 30.36 in1028.1 mb 0.00 in0.0 mm 0.00 in0.0 mm 0.00 in0.0 mm
06:30 PM 57.4°F14.1°C 49.5°F9.7°C 75% 8.7 mph NE14.0 kmh NE 16.8 mph27.0 kmh 30.36 in1028.1 mb 0.00 in0.0 mm 0.00 in0.0 mm 0.00 in0.0 mm
06:35 PM 57.4°F14.1°C 49.5°F9.7°C 75% 8.9 mph NE14.3 kmh NE 14.5 mph23.3 kmh 30.36 in1028.1 mb 0.00 in0.0 mm 0.00 in0.0 mm 0.00 in0.0 mm
06:40 PM 57.4°F14.1°C 49.5°F9.7°C 75% 9.6 mph NE15.4 kmh NE 15.9 mph25.6 kmh 30.36 in1028.1 mb 0.00 in0.0 mm 0.00 in0.0 mm 0.00 in0.0 mm
06:45 PM 57.4°F14.1°C 49.2°F9.6°C 74% 9.7 mph NE15.6 kmh NE 14.5 mph23.3 kmh 30.37 in1028.4 mb 0.00 in0.0 mm 0.00 in0.0 mm 0.00 in0.0 mm
06:50 PM 57.4°F14.1°C 49.2°F9.6°C 74% 10.1 mph NE16.3 kmh NE 15.2 mph24.5 kmh 30.37 in1028.4 mb 0.00 in0.0 mm 0.00 in0.0 mm 0.00 in0.0 mm
06:55 PM 57.4°F14.1°C 49.2°F9.6°C 74% 10.1 mph NE16.3 kmh NE 13.6 mph21.9 kmh 30.37 in1028.4 mb 0.00 in0.0 mm 0.00 in0.0 mm 0.00 in0.0 mm
07:00 PM 57.3°F14.1°C 49.1°F9.5°C 74% 10.1 mph NE16.3 kmh NE 13.6 mph21.9 kmh 30.37 in1028.4 mb 0.00 in0.0 mm 0.00 in0.0 mm 0.00 in0.0 mm
07:05 PM 57.2°F14.0°C 49.0°F9.4°C 74% 9.6 mph NE15.4 kmh NE 11.9 mph19.2 kmh 30.37 in1028.4 mb 0.00 in0.0 mm 0.00 in0.0 mm 0.00 in0.0 mm
07:10 PM 57.1°F13.9°C 48.9°F9.4°C 74% 8.1 mph NE13.0 kmh NE 14.8 mph23.8 kmh 30.37 in1028.4 mb 0.00 in0.0 mm 0.00 in0.0 mm 0.00 in0.0 mm
07:15 PM 57.1°F13.9°C 48.8°F9.3°C 74% 8.2 mph NE13.2 kmh NE 13.4 mph21.6 kmh 30.38 in1028.8 mb 0.00 in0.0 mm 0.00 in0.0 mm 0.00 in0.0 mm
07:20 PM 57.0°F13.9°C 48.8°F9.3°C 74% 8.7 mph NE14.0 kmh NE 13.0 mph20.9 kmh 30.38 in1028.8 mb 0.00 in0.0 mm 0.00 in0.0 mm 0.00 in0.0 mm
07:25 PM 57.0°F13.9°C 48.8°F9.3°C 74% 8.7 mph NE14.0 kmh NE 13.6 mph21.9 kmh 30.38 in1028.8 mb 0.00 in0.0 mm 0.00 in0.0 mm 0.00 in0.0 mm
07:30 PM 57.0°F13.9°C 48.8°F9.3°C 74% 8.5 mph NE13.7 kmh NE 13.4 mph21.6 kmh 30.38 in1028.8 mb 0.00 in0.0 mm 0.00 in0.0 mm 0.00 in0.0 mm
07:35 PM 57.0°F13.9°C 48.8°F9.3°C 74% 8.4 mph NE13.5 kmh NE 10.3 mph16.6 kmh 30.38 in1028.8 mb 0.00 in0.0 mm 0.00 in0.0 mm 0.00 in0.0 mm
07:40 PM 57.0°F13.9°C 48.8°F9.3°C 74% 8.1 mph NE13.0 kmh NE 10.3 mph16.6 kmh 30.38 in1028.8 mb 0.00 in0.0 mm 0.00 in0.0 mm 0.00 in0.0 mm
07:45 PM 57.0°F13.9°C 48.8°F9.3°C 74% 7.9 mph NE12.7 kmh NE 10.3 mph16.6 kmh 30.38 in1028.8 mb 0.00 in0.0 mm 0.00 in0.0 mm 0.00 in0.0 mm
07:50 PM 57.0°F13.9°C 48.8°F9.3°C 74% 7.4 mph NE11.9 kmh NE 11.2 mph18.0 kmh 30.38 in1028.8 mb 0.00 in0.0 mm 0.00 in0.0 mm 0.00 in0.0 mm
07:55 PM 57.0°F13.9°C 48.8°F9.3°C 74% 7.1 mph NE11.4 kmh NE 9.2 mph14.8 kmh 30.38 in1028.8 mb 0.00 in0.0 mm 0.00 in0.0 mm 0.00 in0.0 mm
08:00 PM 57.0°F13.9°C 48.8°F9.3°C 74% 6.3 mph NE10.1 kmh NE 9.2 mph14.8 kmh 30.38 in1028.8 mb 0.00 in0.0 mm 0.00 in0.0 mm 0.00 in0.0 mm
08:05 PM 57.0°F13.9°C 48.8°F9.3°C 74% 6.0 mph NE9.7 kmh NE 8.1 mph13.0 kmh 30.38 in1028.8 mb 0.00 in0.0 mm 0.00 in0.0 mm 0.00 in0.0 mm
08:10 PM 57.0°F13.9°C 48.8°F9.3°C 74% 5.1 mph NE8.2 kmh NE 10.1 mph16.3 kmh 30.38 in1028.8 mb 0.00 in0.0 mm 0.00 in0.0 mm 0.00 in0.0 mm
08:15 PM 57.0°F13.9°C 48.8°F9.3°C 74% 5.3 mph NE8.5 kmh NE 8.7 mph14.0 kmh 30.38 in1028.8 mb 0.00 in0.0 mm 0.00 in0.0 mm 0.00 in0.0 mm
08:20 PM 56.9°F13.8°C 48.7°F9.3°C 74% 5.8 mph NNE9.3 kmh NNE 12.3 mph19.8 kmh 30.38 in1028.8 mb 0.00 in0.0 mm 0.00 in0.0 mm 0.00 in0.0 mm
08:25 PM 56.8°F13.8°C 48.6°F9.2°C 74% 6.1 mph NE9.8 kmh NE 12.3 mph19.8 kmh 30.39 in1029.1 mb 0.00 in0.0 mm 0.00 in0.0 mm 0.00 in0.0 mm
08:30 PM 56.8°F13.8°C 48.6°F9.2°C 74% 6.9 mph NE11.1 kmh NE 11.9 mph19.2 kmh 30.39 in1029.1 mb 0.00 in0.0 mm 0.00 in0.0 mm 0.00 in0.0 mm
08:35 PM 56.8°F13.8°C 48.6°F9.2°C 74% 7.0 mph NE11.3 kmh NE 13.0 mph20.9 kmh 30.39 in1029.1 mb 0.00 in0.0 mm 0.00 in0.0 mm 0.00 in0.0 mm
08:40 PM 56.7°F13.7°C 48.5°F9.2°C 74% 7.4 mph NNE11.9 kmh NNE 10.3 mph16.6 kmh 30.38 in1028.8 mb 0.00 in0.0 mm 0.00 in0.0 mm 0.00 in0.0 mm
08:45 PM 56.6°F13.7°C 48.5°F9.2°C 74% 7.4 mph NNE11.9 kmh NNE 10.3 mph16.6 kmh 30.38 in1028.8 mb 0.00 in0.0 mm 0.00 in0.0 mm 0.00 in0.0 mm
08:50 PM 56.5°F13.6°C 48.6°F9.2°C 75% 7.4 mph NNE11.9 kmh NNE 10.3 mph16.6 kmh 30.38 in1028.8 mb 0.00 in0.0 mm 0.00 in0.0 mm 0.00 in0.0 mm
08:55 PM 56.2°F13.4°C 48.4°F9.1°C 75% 7.3 mph NNE11.7 kmh NNE 9.2 mph14.8 kmh 30.39 in1029.1 mb 0.00 in0.0 mm 0.00 in0.0 mm 0.00 in0.0 mm
09:00 PM 56.1°F13.4°C 48.3°F9.1°C 75% 6.9 mph NNE11.1 kmh NNE 8.5 mph13.7 kmh 30.39 in1029.1 mb 0.00 in0.0 mm 0.00 in0.0 mm 0.00 in0.0 mm
09:05 PM 55.9°F13.3°C 48.3°F9.1°C 76% 6.6 mph NNE10.6 kmh NNE 8.7 mph14.0 kmh 30.39 in1029.1 mb 0.00 in0.0 mm 0.00 in0.0 mm 0.00 in0.0 mm
09:10 PM 55.8°F13.2°C 48.3°F9.1°C 76% 5.4 mph NNE8.7 kmh NNE 10.3 mph16.6 kmh 30.39 in1029.1 mb 0.00 in0.0 mm 0.00 in0.0 mm 0.00 in0.0 mm
09:15 PM 55.7°F13.2°C 48.2°F9.0°C 76% 5.8 mph NNE9.3 kmh NNE 10.3 mph16.6 kmh 30.39 in1029.1 mb 0.00 in0.0 mm 0.00 in0.0 mm 0.00 in0.0 mm
09:20 PM 55.6°F13.1°C 48.0°F8.9°C 76% 7.4 mph NNE11.9 kmh NNE 9.2 mph14.8 kmh 30.39 in1029.1 mb 0.00 in0.0 mm 0.00 in0.0 mm 0.00 in0.0 mm
09:25 PM 55.4°F13.0°C 47.6°F8.7°C 75% 7.2 mph NNE11.6 kmh NNE 8.7 mph14.0 kmh 30.39 in1029.1 mb 0.00 in0.0 mm 0.00 in0.0 mm 0.00 in0.0 mm
09:30 PM 55.2°F12.9°C 47.8°F8.8°C 76% 6.5 mph NNE10.5 kmh NNE 8.1 mph13.0 kmh 30.39 in1029.1 mb 0.00 in0.0 mm 0.00 in0.0 mm 0.00 in0.0 mm
09:35 PM 55.0°F12.8°C 47.6°F8.7°C 76% 6.2 mph NNE10.0 kmh NNE 9.2 mph14.8 kmh 30.39 in1029.1 mb 0.00 in0.0 mm 0.00 in0.0 mm 0.00 in0.0 mm
09:40 PM 55.0°F12.8°C 47.6°F8.7°C 76% 5.1 mph N8.2 kmh N 8.7 mph14.0 kmh 30.39 in1029.1 mb 0.00 in0.0 mm 0.00 in0.0 mm 0.00 in0.0 mm
09:45 PM 55.0°F12.8°C 47.6°F8.7°C 76% 5.2 mph N8.4 kmh N 8.5 mph13.7 kmh 30.39 in1029.1 mb 0.00 in0.0 mm 0.00 in0.0 mm 0.00 in0.0 mm
09:50 PM 54.9°F12.7°C 47.4°F8.6°C 76% 5.4 mph N8.7 kmh N 8.7 mph14.0 kmh 30.39 in1029.1 mb 0.00 in0.0 mm 0.00 in0.0 mm 0.00 in0.0 mm
09:55 PM 54.9°F12.7°C 47.4°F8.6°C 76% 5.4 mph N8.7 kmh N 8.5 mph13.7 kmh 30.40 in1029.5 mb 0.00 in0.0 mm 0.00 in0.0 mm 0.00 in0.0 mm
10:00 PM 55.0°F12.8°C 47.4°F8.6°C 76% 5.4 mph N8.7 kmh N 8.1 mph13.0 kmh 30.40 in1029.5 mb 0.00 in0.0 mm 0.00 in0.0 mm 0.00 in0.0 mm
10:05 PM 54.9°F12.7°C 47.1°F8.4°C 75% 5.4 mph N8.7 kmh N 7.4 mph11.9 kmh 30.40 in1029.5 mb 0.00 in0.0 mm 0.00 in0.0 mm 0.00 in0.0 mm
10:10 PM 54.8°F12.7°C 47.3°F8.5°C 76% 5.4 mph N8.7 kmh N 8.5 mph13.7 kmh 30.40 in1029.5 mb 0.00 in0.0 mm 0.00 in0.0 mm 0.00 in0.0 mm
10:15 PM 54.7°F12.6°C 47.3°F8.5°C 76% 5.6 mph NNW9.0 kmh NNW 8.1 mph13.0 kmh 30.40 in1029.5 mb 0.00 in0.0 mm 0.00 in0.0 mm 0.00 in0.0 mm
10:20 PM 54.6°F12.6°C 47.2°F8.4°C 76% 6.3 mph NNW10.1 kmh NNW 6.5 mph10.5 kmh 30.40 in1029.5 mb 0.00 in0.0 mm 0.00 in0.0 mm 0.00 in0.0 mm
10:25 PM 54.4°F12.4°C 47.0°F8.3°C 76% 5.9 mph NW9.5 kmh NW 6.9 mph11.1 kmh 30.40 in1029.5 mb 0.00 in0.0 mm 0.00 in0.0 mm 0.00 in0.0 mm
10:30 PM 54.3°F12.4°C 46.9°F8.3°C 76% 4.7 mph NW7.6 kmh NW 6.3 mph10.1 kmh 30.39 in1029.1 mb 0.00 in0.0 mm 0.00 in0.0 mm 0.00 in0.0 mm
10:35 PM 54.1°F12.3°C 46.7°F8.2°C 76% 4.8 mph NW7.7 kmh NW 7.6 mph12.2 kmh 30.39 in1029.1 mb 0.00 in0.0 mm 0.00 in0.0 mm 0.00 in0.0 mm
10:40 PM 53.9°F12.2°C 46.5°F8.1°C 76% 5.1 mph WNW8.2 kmh WNW 8.5 mph13.7 kmh 30.39 in1029.1 mb 0.00 in0.0 mm 0.00 in0.0 mm 0.00 in0.0 mm
10:45 PM 53.7°F12.1°C 46.3°F7.9°C 76% 5.3 mph WNW8.5 kmh WNW 6.9 mph11.1 kmh 30.39 in1029.1 mb 0.00 in0.0 mm 0.00 in0.0 mm 0.00 in0.0 mm
10:50 PM 53.4°F11.9°C 46.0°F7.8°C 76% 5.8 mph WNW9.3 kmh WNW 6.3 mph10.1 kmh 30.39 in1029.1 mb 0.00 in0.0 mm 0.00 in0.0 mm 0.00 in0.0 mm
10:55 PM 53.2°F11.8°C 46.0°F7.8°C 77% 5.7 mph WNW9.2 kmh WNW 7.4 mph11.9 kmh 30.39 in1029.1 mb 0.00 in0.0 mm 0.00 in0.0 mm 0.00 in0.0 mm
11:00 PM 53.0°F11.7°C 45.9°F7.7°C 77% 5.1 mph W8.2 kmh W 7.6 mph12.2 kmh 30.39 in1029.1 mb 0.00 in0.0 mm 0.00 in0.0 mm 0.00 in0.0 mm
11:05 PM 52.7°F11.5°C 45.7°F7.6°C 77% 5.3 mph W8.5 kmh W 7.6 mph12.2 kmh 30.39 in1029.1 mb 0.00 in0.0 mm 0.00 in0.0 mm 0.00 in0.0 mm
11:10 PM 52.5°F11.4°C 45.5°F7.5°C 77% 5.8 mph W9.3 kmh W 6.3 mph10.1 kmh 30.40 in1029.5 mb 0.00 in0.0 mm 0.00 in0.0 mm 0.00 in0.0 mm
11:15 PM 52.3°F11.3°C 45.3°F7.4°C 77% 5.8 mph W9.3 kmh W 8.5 mph13.7 kmh 30.40 in1029.5 mb 0.00 in0.0 mm 0.00 in0.0 mm 0.00 in0.0 mm
11:20 PM 52.2°F11.2°C 45.5°F7.5°C 78% 5.8 mph WNW9.3 kmh WNW 6.5 mph10.5 kmh 30.40 in1029.5 mb 0.00 in0.0 mm 0.00 in0.0 mm 0.00 in0.0 mm
11:25 PM 52.2°F11.2°C 45.5°F7.5°C 78% 5.7 mph WNW9.2 kmh WNW 6.5 mph10.5 kmh 30.40 in1029.5 mb 0.00 in0.0 mm 0.00 in0.0 mm 0.00 in0.0 mm
11:30 PM 52.2°F11.2°C 45.5°F7.5°C 78% 5.1 mph NW8.2 kmh NW 5.8 mph9.3 kmh 30.39 in1029.1 mb 0.00 in0.0 mm 0.00 in0.0 mm 0.00 in0.0 mm
11:35 PM 52.1°F11.2°C 45.5°F7.5°C 78% 5.1 mph NW8.2 kmh NW 6.5 mph10.5 kmh 30.39 in1029.1 mb 0.00 in0.0 mm 0.00 in0.0 mm 0.00 in0.0 mm
11:40 PM 52.0°F11.1°C 45.3°F7.4°C 78% 5.1 mph WNW8.2 kmh WNW 7.6 mph12.2 kmh 30.39 in1029.1 mb 0.00 in0.0 mm 0.00 in0.0 mm 0.00 in0.0 mm
11:45 PM 51.9°F11.1°C 45.2°F7.3°C 78% 5.4 mph WNW8.7 kmh WNW 7.4 mph11.9 kmh 30.39 in1029.1 mb 0.00 in0.0 mm 0.00 in0.0 mm 0.00 in0.0 mm
11:50 PM 51.6°F10.9°C 45.0°F7.2°C 78% 6.3 mph W10.1 kmh W 8.1 mph13.0 kmh 30.39 in1029.1 mb 0.00 in0.0 mm 0.00 in0.0 mm 0.00 in0.0 mm
11:55 PM 51.6°F10.9°C 45.0°F7.2°C 78% 6.1 mph WNW9.8 kmh WNW 7.4 mph11.9 kmh 30.39 in1029.1 mb 0.00 in0.0 mm 0.00 in0.0 mm 0.00 in0.0 mm